Anton Chico, New Mexico
Current Conditions -  °F | °C
As of 3:53 PM on Tuesday 21 Oct 2014 (Local Time) from KLVS Reporting Station
Overcast Overcast  
Wind Chill: 58°   Ceiling: 7500
Heat Index: 58°   Visibility: 10mi
Dew Point: 45°   Wind: 18mph
Humidity: 62%   Direction: 170°S
Pressure: 30.14"   Gusts: NA
Location:  35.2°N, 105.14°W
Report Text: KLVS 212153Z AUTO 17016KT 10SM FEW029 OVC075 14/07 A3014 RMK AO2 SLP142 T01440072
Loading
Personal Weather Stations






























Interactive Weather Map New forecast layout! Learn more

10-Day Weather Forecast

Advertisements
Track Severe Weather on mobile